Terminal Aerodrome Forecast
Issued by NWS Sioux Falls, SD

Home | Current Version | Previous Version | Text Only | Print | Product List | Glossary On
Versions: 1 2 3 4 5 6 7 8 9 10 11 12 13 14 15 16 17 18 19
637
FTUS43 KFSD 221837 AAA
TAFFSD
TAF AMD
KFSD 221837Z 2219/2318 11010KT P6SM OVC025
     FM221930 12010KT 2SM -SN OVC020
     FM222100 12010KT 1 1/2SM -SN OVC010
     FM222300 13006KT 3/4SM -SN OVC008
     FM230400 16004KT 3SM -SN OVC008
     FM230600 VRB03KT P6SM OVC010
     FM231400 30007KT P6SM BKN035=

USA.gov is the U.S. government's official web portal to all federal, state and local government web resources and services.